Time;durP1;ratioP1;P1;durP2;ratioP2;P2;SDS_P1;SDS_P2;PMS_P1;PMS_P2;Temp;Humidity;BMP_temperature;BMP_pressure;BME280_temperature;BME280_humidity;BME280_pressure;Samples;Min_cycle;Max_cycle;Signal;HPM_P1;HPM_P2
2022/11/28 00:00:32;;;;;;;;;;;22.20;64.80;;;;;;1564279;76;740;-60
2022/11/28 00:02:34;;;;;;;;;;;22.10;64.70;;;;;;1561520;76;625;-59
2022/11/28 00:04:36;;;;;;;;;;;22.10;64.70;;;;;;1534243;76;1475;-61
2022/11/28 00:06:38;;;;;;;;;;;22.20;64.70;;;;;;1534352;76;658;-59
2022/11/28 00:08:40;;;;;;;;;;;22.20;64.60;;;;;;1534542;76;1129;-59
2022/11/28 00:10:42;;;;;;;;;;;22.20;64.60;;;;;;1563565;76;657;-60
2022/11/28 00:12:44;;;;;;;;;;;22.20;64.60;;;;;;1534952;77;1936;-60
2022/11/28 00:14:46;;;;;;;;;;;22.20;64.50;;;;;;1538601;76;568;-60
2022/11/28 00:16:48;;;;;;;;;;;22.20;64.40;;;;;;1534703;77;715;-60
2022/11/28 00:18:50;;;;;;;;;;;22.20;64.50;;;;;;1565727;76;1521;-59
2022/11/28 00:20:52;;;;;;;;;;;22.20;64.40;;;;;;1534694;77;683;-59
2022/11/28 00:22:54;;;;;;;;;;;22.20;64.40;;;;;;1501861;79;679;-59
2022/11/28 00:24:56;;;;;;;;;;;22.20;64.30;;;;;;1562332;76;801;-58
2022/11/28 00:26:58;;;;;;;;;;;22.20;64.30;;;;;;1561391;76;648;-57
2022/11/28 00:28:59;;;;;;;;;;;22.20;64.40;;;;;;1534956;76;1099;-57
2022/11/28 00:31:01;;;;;;;;;;;22.20;64.30;;;;;;1536225;76;675;-57
2022/11/28 00:33:03;;;;;;;;;;;22.30;64.40;;;;;;1526525;77;1944;-57
2022/11/28 00:35:06;;;;;;;;;;;22.20;64.30;;;;;;1514653;78;706;-59
2022/11/28 00:37:07;;;;;;;;;;;22.20;64.30;;;;;;1514711;78;599;-59
2022/11/28 00:39:09;;;;;;;;;;;22.30;64.40;;;;;;1515440;77;1199;-59
2022/11/28 00:41:15;;;;;;;;;;;22.30;64.40;;;;;;1514661;78;559;-59
2022/11/28 00:43:17;;;;;;;;;;;22.20;64.30;;;;;;1511625;78;626;-59
2022/11/28 00:45:19;;;;;;;;;;;22.30;64.40;;;;;;1513680;78;679;-60
2022/11/28 00:47:21;;;;;;;;;;;22.30;64.30;;;;;;1517979;77;1481;-59
2022/11/28 00:49:23;;;;;;;;;;;22.20;64.30;;;;;;1519734;77;1082;-60
2022/11/28 00:51:25;;;;;;;;;;;22.20;64.40;;;;;;1510415;78;721;-59
2022/11/28 00:53:27;;;;;;;;;;;22.20;64.40;;;;;;1514984;78;1941;-60
2022/11/28 00:55:29;;;;;;;;;;;22.20;64.40;;;;;;1506423;78;675;-59
2022/11/28 00:57:31;;;;;;;;;;;22.30;64.50;;;;;;1513541;78;718;-60
2022/11/28 00:59:33;;;;;;;;;;;22.20;64.40;;;;;;1483367;78;1069;-60
2022/11/28 01:01:36;;;;;;;;;;;22.20;64.30;;;;;;1487091;78;1376;-59
2022/11/28 01:03:38;;;;;;;;;;;22.20;64.30;;;;;;1512525;77;585;-60
2022/11/28 01:05:40;;;;;;;;;;;22.20;64.40;;;;;;1517734;77;621;-60
2022/11/28 01:07:42;;;;;;;;;;;22.30;64.50;;;;;;1485070;78;1155;-60
2022/11/28 01:09:44;;;;;;;;;;;22.20;64.40;;;;;;1486172;79;708;-60
2022/11/28 01:11:47;;;;;;;;;;;22.20;64.40;;;;;;1491304;79;670;-60
2022/11/28 01:13:49;;;;;;;;;;;22.20;64.30;;;;;;1482437;79;1935;-59
2022/11/28 01:15:51;;;;;;;;;;;22.20;64.30;;;;;;1485904;79;1475;-59
2022/11/28 01:17:53;;;;;;;;;;;22.20;64.30;;;;;;1496074;78;1155;-59
2022/11/28 01:19:55;;;;;;;;;;;22.20;64.30;;;;;;1482987;79;653;-59
2022/11/28 01:21:57;;;;;;;;;;;22.20;64.30;;;;;;1492092;79;662;-60
2022/11/28 01:23:59;;;;;;;;;;;22.20;64.40;;;;;;1484739;79;700;-59
2022/11/28 01:26:20;;;;;;;;;;;22.20;64.40;;;;;;1487419;79;695;-60
2022/11/28 01:28:22;;;;;;;;;;;22.20;64.40;;;;;;1588118;74;1250;-60
2022/11/28 01:30:24;;;;;;;;;;;22.10;64.40;;;;;;1535767;75;1411;-60
2022/11/28 01:32:26;;;;;;;;;;;22.20;64.40;;;;;;1563733;74;1939;-59
2022/11/28 01:34:27;;;;;;;;;;;22.10;64.40;;;;;;1567761;75;626;-59
2022/11/28 01:36:29;;;;;;;;;;;22.20;64.40;;;;;;1582839;74;731;-59
2022/11/28 01:38:31;;;;;;;;;;;22.10;64.40;;;;;;1570144;75;1137;-59
2022/11/28 01:40:33;;;;;;;;;;;22.20;64.40;;;;;;1608226;73;672;-59
2022/11/28 01:42:35;;;;;;;;;;;22.20;64.30;;;;;;1606795;73;555;-60
2022/11/28 01:44:39;;;;;;;;;;;22.20;64.40;;;;;;1604909;72;1567;-60
2022/11/28 01:46:41;;;;;;;;;;;22.20;64.50;;;;;;1612738;73;654;-60
2022/11/28 01:48:43;;;;;;;;;;;22.20;64.40;;;;;;1599664;73;1089;-59
2022/11/28 01:50:46;;;;;;;;;;;22.20;64.40;;;;;;1595665;73;684;-60
2022/11/28 01:52:49;;;;;;;;;;;22.10;64.30;;;;;;1610744;73;1900;-60
2022/11/28 01:54:52;;;;;;;;;;;22.10;64.30;;;;;;1610462;73;708;-60
2022/11/28 01:56:58;;;;;;;;;;;22.20;64.30;;;;;;1590372;73;703;-59
2022/11/28 01:59:02;;;;;;;;;;;22.20;64.30;;;;;;1600895;73;1186;-60
2022/11/28 02:01:04;;;;;;;;;;;22.20;64.30;;;;;;1592111;73;724;-60
2022/11/28 02:03:13;;;;;;;;;;;22.20;64.20;;;;;;1604454;73;836;-60
2022/11/28 02:05:16;;;;;;;;;;;22.10;64.30;;;;;;1594839;73;1797;-60
2022/11/28 02:07:18;;;;;;;;;;;22.10;64.20;;;;;;1607192;73;765;-60
2022/11/28 02:09:20;;;;;;;;;;;22.20;64.20;;;;;;1609240;73;1118;-60
2022/11/28 02:11:26;;;;;;;;;;;22.20;64.20;;;;;;1604948;72;1357;-60
2022/11/28 02:13:36;;;;;;;;;;;22.10;64.20;;;;;;1613647;73;1943;-60
2022/11/28 02:15:45;;;;;;;;;;;22.10;64.30;;;;;;1597212;73;2167;-60
2022/11/28 02:17:57;;;;;;;;;;;22.10;64.40;;;;;;1608184;73;1885;-60
2022/11/28 02:20:07;;;;;;;;;;;22.10;64.40;;;;;;1592563;73;1905;-61
2022/11/28 02:22:12;;;;;;;;;;;22.10;64.50;;;;;;1612774;73;694;-60
2022/11/28 02:24:28;;;;;;;;;;;22.10;64.50;;;;;;1612007;73;673;-60
2022/11/28 02:26:31;;;;;;;;;;;22.10;64.50;;;;;;1612863;73;1891;-60
2022/11/28 02:28:35;;;;;;;;;;;22.10;64.50;;;;;;1610210;73;1201;-60
2022/11/28 02:30:44;;;;;;;;;;;22.10;64.60;;;;;;1601010;73;787;-61
2022/11/28 02:33:06;;;;;;;;;;;22.10;64.50;;;;;;1604334;73;2175;-59
2022/11/28 02:35:09;;;;;;;;;;;22.10;64.60;;;;;;1611911;73;734;-60
2022/11/28 02:37:13;;;;;;;;;;;22.10;64.50;;;;;;1604447;73;758;-59
2022/11/28 02:39:16;;;;;;;;;;;22.10;64.50;;;;;;1604728;72;1886;-60
2022/11/28 02:41:20;;;;;;;;;;;22.10;64.60;;;;;;1599502;73;1659;-60
2022/11/28 02:43:23;;;;;;;;;;;22.00;64.50;;;;;;1608919;73;611;-60
2022/11/28 02:45:33;;;;;;;;;;;22.10;64.50;;;;;;1608784;73;695;-60
2022/11/28 02:47:39;;;;;;;;;;;22.10;64.50;;;;;;1603124;73;1995;-60
2022/11/28 02:49:42;;;;;;;;;;;22.10;64.60;;;;;;1604246;73;1062;-59
2022/11/28 02:51:49;;;;;;;;;;;22.10;64.50;;;;;;1598495;73;1843;-60
2022/11/28 02:53:51;;;;;;;;;;;22.10;64.60;;;;;;1603395;73;1936;-60
2022/11/28 02:55:53;;;;;;;;;;;22.10;64.60;;;;;;1610713;73;685;-60
2022/11/28 02:57:55;;;;;;;;;;;22.00;64.60;;;;;;1606830;73;1150;-59
2022/11/28 02:59:57;;;;;;;;;;;22.10;64.60;;;;;;1608541;73;675;-60
2022/11/28 03:01:59;;;;;;;;;;;22.00;64.50;;;;;;1612989;73;732;-59
2022/11/28 03:04:05;;;;;;;;;;;22.10;64.50;;;;;;1600087;72;863;-59
2022/11/28 03:06:29;;;;;;;;;;;22.10;64.50;;;;;;1604853;73;1482;-60
2022/11/28 03:08:38;;;;;;;;;;;22.10;64.50;;;;;;1607523;72;1350;-60
2022/11/28 03:10:45;;;;;;;;;;;22.10;64.50;;;;;;1603882;73;956;-60
2022/11/28 03:12:57;;;;;;;;;;;22.10;64.60;;;;;;1604326;73;1943;-59
2022/11/28 03:15:01;;;;;;;;;;;22.10;64.60;;;;;;1606558;73;667;-60
2022/11/28 03:17:11;;;;;;;;;;;22.00;64.70;;;;;;1606366;73;1827;-60
2022/11/28 03:19:14;;;;;;;;;;;22.10;64.80;;;;;;1609730;73;1126;-61
2022/11/28 03:21:27;;;;;;;;;;;22.00;64.90;;;;;;1611961;73;703;-60
2022/11/28 03:23:30;;;;;;;;;;;22.00;64.90;;;;;;1604334;73;1583;-60
2022/11/28 03:25:34;;;;;;;;;;;22.10;65.10;;;;;;1606384;73;698;-60
2022/11/28 03:27:37;;;;;;;;;;;22.10;65.10;;;;;;1609783;73;879;-60
2022/11/28 03:29:41;;;;;;;;;;;22.10;65.10;;;;;;1608527;73;803;-60
2022/11/28 03:31:44;;;;;;;;;;;22.10;65.20;;;;;;1595441;73;686;-60
2022/11/28 03:33:47;;;;;;;;;;;22.10;65.20;;;;;;1615473;73;1932;-60
2022/11/28 03:35:51;;;;;;;;;;;22.10;65.20;;;;;;1607528;73;1558;-60
2022/11/28 03:37:54;;;;;;;;;;;22.10;65.20;;;;;;1608461;72;1133;-60
2022/11/28 03:40:01;;;;;;;;;;;22.10;65.20;;;;;;1605693;73;1417;-60
2022/11/28 03:42:04;;;;;;;;;;;22.10;65.20;;;;;;1590831;73;744;-60
2022/11/28 03:44:07;;;;;;;;;;;22.10;65.40;;;;;;1606947;73;672;-60
2022/11/28 03:46:11;;;;;;;;;;;22.10;65.40;;;;;;1606959;73;826;-60
2022/11/28 03:48:15;;;;;;;;;;;22.20;65.40;;;;;;1611397;73;1158;-61
2022/11/28 03:50:18;;;;;;;;;;;22.20;65.40;;;;;;1610682;73;1582;-61
2022/11/28 03:52:22;;;;;;;;;;;22.20;65.40;;;;;;1594302;73;1747;-60
2022/11/28 03:54:28;;;;;;;;;;;22.30;65.30;;;;;;1605003;73;1948;-61
2022/11/28 03:56:32;;;;;;;;;;;22.20;65.20;;;;;;1598248;73;697;-60
2022/11/28 03:58:35;;;;;;;;;;;22.20;65.10;;;;;;1596812;73;1107;-60
2022/11/28 04:00:38;;;;;;;;;;;22.20;65.10;;;;;;1609306;73;725;-60
2022/11/28 04:02:41;;;;;;;;;;;22.30;65.10;;;;;;1607031;73;663;-60
2022/11/28 04:04:57;;;;;;;;;;;22.20;65.10;;;;;;1609500;72;1239;-61
2022/11/28 04:07:09;;;;;;;;;;;22.30;65.20;;;;;;1604992;73;2095;-61
2022/11/28 04:09:13;;;;;;;;;;;22.30;65.10;;;;;;1610647;73;1637;-60
2022/11/28 04:11:35;;;;;;;;;;;22.30;65.00;;;;;;1603900;73;1862;-60
2022/11/28 04:13:47;;;;;;;;;;;22.30;65.00;;;;;;1605179;73;1930;-60
2022/11/28 04:15:56;;;;;;;;;;;22.40;64.90;;;;;;1609713;73;687;-60
2022/11/28 04:18:06;;;;;;;;;;;22.30;64.90;;;;;;1611992;73;1563;-60
2022/11/28 04:20:26;;;;;;;;;;;22.40;64.80;;;;;;1606265;73;687;-60
2022/11/28 04:22:29;;;;;;;;;;;22.30;64.80;;;;;;1607668;73;674;-60
2022/11/28 04:24:32;;;;;;;;;;;22.40;64.90;;;;;;1603703;73;1776;-60
2022/11/28 04:26:35;;;;;;;;;;;22.50;65.00;;;;;;1604858;73;731;-61
2022/11/28 04:28:37;;;;;;;;;;;22.40;64.90;;;;;;1600796;73;1201;-60
2022/11/28 04:30:39;;;;;;;;;;;22.40;64.90;;;;;;1601152;73;628;-60
2022/11/28 04:32:42;;;;;;;;;;;22.40;64.90;;;;;;1605201;73;1589;-60
2022/11/28 04:34:44;;;;;;;;;;;22.40;64.80;;;;;;1605965;73;1934;-61
2022/11/28 04:36:46;;;;;;;;;;;22.40;64.70;;;;;;1604692;73;667;-60
2022/11/28 04:38:55;;;;;;;;;;;22.40;64.70;;;;;;1604774;73;1161;-60
2022/11/28 04:40:53;;;;;;;;;;;22.40;64.70;;;;;;1602696;73;1725;-60
2022/11/28 04:42:57;;;;;;;;;;;22.40;64.60;;;;;;1588718;73;1956;-60
2022/11/28 04:45:03;;;;;;;;;;;22.40;64.50;;;;;;1610001;73;735;-60
2022/11/28 04:47:05;;;;;;;;;;;22.40;64.50;;;;;;1600908;72;1674;-61
2022/11/28 04:49:07;;;;;;;;;;;22.50;64.60;;;;;;1616224;73;1142;-60
2022/11/28 04:51:25;;;;;;;;;;;22.40;64.50;;;;;;1611381;73;673;-60
2022/11/28 04:53:28;;;;;;;;;;;22.40;64.50;;;;;;1599089;73;1941;-60
2022/11/28 04:55:35;;;;;;;;;;;22.50;64.60;;;;;;1597371;73;695;-60
2022/11/28 04:57:41;;;;;;;;;;;22.50;64.50;;;;;;1604571;73;1102;-60
2022/11/28 04:59:43;;;;;;;;;;;22.40;64.30;;;;;;1607444;73;695;-60
2022/11/28 05:01:45;;;;;;;;;;;22.50;64.50;;;;;;1610396;73;1706;-60
2022/11/28 05:03:46;;;;;;;;;;;22.50;64.50;;;;;;1600899;73;615;-60
2022/11/28 05:05:49;;;;;;;;;;;22.50;64.40;;;;;;1612959;73;662;-60
2022/11/28 05:07:51;;;;;;;;;;;22.50;64.50;;;;;;1613370;73;1087;-60
2022/11/28 05:09:54;;;;;;;;;;;22.50;64.30;;;;;;1595575;73;650;-60
2022/11/28 05:11:56;;;;;;;;;;;22.50;64.30;;;;;;1600371;73;773;-61
2022/11/28 05:13:58;;;;;;;;;;;22.50;64.30;;;;;;1605576;73;1936;-60
2022/11/28 05:16:02;;;;;;;;;;;22.50;64.20;;;;;;1610811;73;672;-60
2022/11/28 05:18:04;;;;;;;;;;;22.50;64.20;;;;;;1613635;73;1125;-60
2022/11/28 05:20:06;;;;;;;;;;;22.50;64.20;;;;;;1607970;73;828;-60
2022/11/28 05:22:08;;;;;;;;;;;22.50;64.20;;;;;;1604852;73;687;-60
2022/11/28 05:24:10;;;;;;;;;;;22.50;64.10;;;;;;1603828;73;757;-58
2022/11/28 05:26:12;;;;;;;;;;;22.50;64.10;;;;;;1605044;73;630;-59
2022/11/28 05:28:14;;;;;;;;;;;22.50;64.10;;;;;;1612284;72;1491;-58
2022/11/28 05:30:16;;;;;;;;;;;22.50;64.10;;;;;;1609355;73;762;-58
2022/11/28 05:32:19;;;;;;;;;;;22.50;64.00;;;;;;1608193;73;678;-58
2022/11/28 05:34:20;;;;;;;;;;;22.50;64.00;;;;;;1604896;73;1898;-60
2022/11/28 05:36:22;;;;;;;;;;;22.50;64.20;;;;;;1605296;73;682;-59
2022/11/28 05:38:24;;;;;;;;;;;22.50;64.30;;;;;;1608846;73;1168;-59
2022/11/28 05:40:26;;;;;;;;;;;22.50;64.20;;;;;;1605070;73;671;-59
2022/11/28 05:42:29;;;;;;;;;;;22.50;64.20;;;;;;1601630;73;1548;-59
2022/11/28 05:44:31;;;;;;;;;;;22.50;64.20;;;;;;1601727;73;2016;-58
2022/11/28 05:46:33;;;;;;;;;;;22.50;64.30;;;;;;1607352;73;674;-58
2022/11/28 05:48:35;;;;;;;;;;;22.50;64.30;;;;;;1609229;73;1122;-57
2022/11/28 05:50:40;;;;;;;;;;;22.50;64.10;;;;;;1604617;73;643;-59
2022/11/28 05:52:42;;;;;;;;;;;22.60;64.00;;;;;;1601265;73;657;-59
2022/11/28 05:54:44;;;;;;;;;;;22.50;64.00;;;;;;1604553;73;1940;-60
2022/11/28 05:56:46;;;;;;;;;;;22.50;64.00;;;;;;1605467;73;1554;-61
2022/11/28 05:58:48;;;;;;;;;;;22.50;64.10;;;;;;1608442;73;1114;-59
2022/11/28 06:00:50;;;;;;;;;;;22.60;64.10;;;;;;1603949;73;668;-62
2022/11/28 06:02:52;;;;;;;;;;;22.50;64.00;;;;;;1613243;73;744;-59
2022/11/28 06:04:54;;;;;;;;;;;22.50;64.00;;;;;;1599297;73;767;-58
2022/11/28 06:06:55;;;;;;;;;;;22.60;64.10;;;;;;1605729;73;703;-61
2022/11/28 06:08:57;;;;;;;;;;;22.60;63.90;;;;;;1598778;73;1093;-58
2022/11/28 06:11:00;;;;;;;;;;;22.50;63.80;;;;;;1605507;73;1543;-59
2022/11/28 06:13:02;;;;;;;;;;;22.50;63.70;;;;;;1604478;73;683;-61
2022/11/28 06:15:04;;;;;;;;;;;22.50;63.60;;;;;;1604128;73;1903;-59
2022/11/28 06:17:06;;;;;;;;;;;22.60;63.50;;;;;;1607540;73;731;-59
2022/11/28 06:19:09;;;;;;;;;;;22.50;63.40;;;;;;1610454;73;1129;-59
2022/11/28 06:21:11;;;;;;;;;;;22.50;63.20;;;;;;1607364;73;700;-59
2022/11/28 06:23:13;;;;;;;;;;;22.50;63.20;;;;;;1604778;73;768;-59
2022/11/28 06:25:15;;;;;;;;;;;22.50;63.10;;;;;;1606742;73;1541;-61
2022/11/28 06:27:17;;;;;;;;;;;22.50;63.10;;;;;;1609302;73;661;-59
2022/11/28 06:29:19;;;;;;;;;;;22.50;63.50;;;;;;1605627;73;1158;-60
2022/11/28 06:31:26;;;;;;;;;;;22.50;63.70;;;;;;1605396;73;756;-60
2022/11/28 06:33:28;;;;;;;;;;;22.60;63.80;;;;;;1604265;73;676;-58
2022/11/28 06:35:30;;;;;;;;;;;22.60;64.00;;;;;;1601206;73;1936;-60
2022/11/28 06:37:31;;;;;;;;;;;22.50;63.90;;;;;;1606766;73;700;-61
2022/11/28 06:39:33;;;;;;;;;;;22.50;63.90;;;;;;1610935;73;1383;-59
2022/11/28 06:41:35;;;;;;;;;;;22.50;63.70;;;;;;1605347;73;705;-59
2022/11/28 06:43:37;;;;;;;;;;;22.50;63.60;;;;;;1600109;73;652;-59
2022/11/28 06:45:39;;;;;;;;;;;22.50;63.50;;;;;;1602470;73;718;-60
2022/11/28 06:47:41;;;;;;;;;;;22.50;63.50;;;;;;1607936;73;1146;-59
2022/11/28 06:49:43;;;;;;;;;;;22.50;63.50;;;;;;1605434;73;700;-58
2022/11/28 06:51:45;;;;;;;;;;;22.50;63.50;;;;;;1604854;73;663;-59
2022/11/28 06:53:47;;;;;;;;;;;22.50;63.40;;;;;;1603647;73;1570;-60
2022/11/28 06:55:49;;;;;;;;;;;22.50;63.20;;;;;;1612154;73;1947;-61
2022/11/28 06:57:50;;;;;;;;;;;22.50;63.00;;;;;;1609029;73;1209;-61
2022/11/28 06:59:52;;;;;;;;;;;22.40;62.80;;;;;;1601372;73;676;-59
2022/11/28 07:01:56;;;;;;;;;;;22.40;62.90;;;;;;1606832;73;745;-59
2022/11/28 07:03:58;;;;;;;;;;;22.40;62.90;;;;;;1596107;73;1549;-59
2022/11/28 07:06:01;;;;;;;;;;;22.40;62.90;;;;;;1608219;73;720;-60
2022/11/28 07:08:02;;;;;;;;;;;22.40;62.80;;;;;;1611847;73;1543;-60
2022/11/28 07:10:05;;;;;;;;;;;22.40;62.80;;;;;;1604396;73;713;-60
2022/11/28 07:12:07;;;;;;;;;;;22.50;62.90;;;;;;1601272;73;755;-62
2022/11/28 07:14:09;;;;;;;;;;;22.40;62.80;;;;;;1616063;73;1924;-59
2022/11/28 07:16:15;;;;;;;;;;;22.40;62.70;;;;;;1610348;73;693;-59
2022/11/28 07:18:17;;;;;;;;;;;22.40;62.80;;;;;;1600548;73;1927;-59
2022/11/28 07:20:19;;;;;;;;;;;22.40;62.80;;;;;;1603255;73;739;-58
2022/11/28 07:22:21;;;;;;;;;;;22.40;62.70;;;;;;1605573;73;1712;-60
2022/11/28 07:24:23;;;;;;;;;;;22.40;62.70;;;;;;1604707;73;652;-59
2022/11/28 07:26:25;;;;;;;;;;;22.40;62.70;;;;;;1597631;71;227235;-68
2022/11/28 07:28:27;;;;;;;;;;;22.40;62.80;;;;;;1579847;73;561;-64
2022/11/28 07:30:29;;;;;;;;;;;22.40;62.70;;;;;;1573865;74;605;-68
2022/11/28 07:32:31;;;;;;;;;;;22.40;62.70;;;;;;1572775;74;676;-67
2022/11/28 07:34:33;;;;;;;;;;;22.40;62.60;;;;;;1573592;74;1936;-65
2022/11/28 07:36:35;;;;;;;;;;;22.40;62.70;;;;;;1574751;74;1223;-65
2022/11/28 07:38:37;;;;;;;;;;;22.40;62.70;;;;;;1571313;74;678;-64
2022/11/28 07:40:39;;;;;;;;;;;22.40;62.70;;;;;;1575622;74;645;-64
2022/11/28 07:42:41;;;;;;;;;;;22.40;62.80;;;;;;1560188;74;713;-64
2022/11/28 07:44:42;;;;;;;;;;;22.40;62.70;;;;;;1571451;74;674;-66
2022/11/28 07:46:45;;;;;;;;;;;22.40;62.30;;;;;;1581699;73;1142;-66
2022/11/28 07:48:47;;;;;;;;;;;22.40;62.00;;;;;;1566996;74;1450;-68
2022/11/28 07:50:49;;;;;;;;;;;22.60;61.00;;;;;;1553604;74;687;-65
2022/11/28 07:52:51;;;;;;;;;;;22.70;59.90;;;;;;1566871;74;758;-70
2022/11/28 07:54:53;;;;;;;;;;;22.60;59.10;;;;;;1566713;74;1908;-67
2022/11/28 07:56:54;;;;;;;;;;;22.70;60.30;;;;;;1564121;74;1155;-66
2022/11/28 07:58:56;;;;;;;;;;;22.50;55.20;;;;;;1564369;74;706;-71
2022/11/28 08:00:58;;;;;;;;;;;22.40;54.40;;;;;;1575371;74;672;-67
2022/11/28 08:03:00;;;;;;;;;;;22.30;54.40;;;;;;1569822;74;1385;-67
2022/11/28 08:05:02;;;;;;;;;;;22.20;53.60;;;;;;1561345;74;689;-67
2022/11/28 08:07:04;;;;;;;;;;;22.20;53.50;;;;;;1577575;74;1082;-67
2022/11/28 08:09:10;;;;;;;;;;;22.10;53.10;;;;;;1571170;74;643;-66
2022/11/28 08:11:12;;;;;;;;;;;22.10;52.60;;;;;;1565872;74;1585;-69
2022/11/28 08:13:14;;;;;;;;;;;22.00;52.30;;;;;;1564277;74;684;-68
2022/11/28 08:15:15;;;;;;;;;;;22.00;52.20;;;;;;1576908;74;1934;-67
2022/11/28 08:17:17;;;;;;;;;;;22.00;52.30;;;;;;1574913;73;1463;-69
2022/11/28 08:19:19;;;;;;;;;;;21.90;51.80;;;;;;1566152;74;680;-67
2022/11/28 08:21:25;;;;;;;;;;;21.90;51.80;;;;;;1563514;74;720;-69
2022/11/28 08:23:26;;;;;;;;;;;21.90;51.60;;;;;;1562221;74;724;-71
2022/11/28 08:25:28;;;;;;;;;;;21.90;51.50;;;;;;1553038;74;722;-68
2022/11/28 08:27:31;;;;;;;;;;;21.90;50.90;;;;;;1560073;74;1241;-67
2022/11/28 08:29:33;;;;;;;;;;;21.80;51.20;;;;;;1572553;74;656;-67
2022/11/28 08:31:36;;;;;;;;;;;21.80;50.90;;;;;;1575990;74;1540;-67
2022/11/28 08:33:38;;;;;;;;;;;21.80;51.20;;;;;;1581166;74;576;-67
2022/11/28 08:35:40;;;;;;;;;;;21.70;50.90;;;;;;1556057;74;1913;-69
2022/11/28 08:37:42;;;;;;;;;;;21.70;49.90;;;;;;1555602;74;1142;-69
2022/11/28 08:39:44;;;;;;;;;;;21.70;49.40;;;;;;1562460;74;730;-69
2022/11/28 08:41:46;;;;;;;;;;;21.70;49.90;;;;;;1560904;74;681;-68
2022/11/28 08:43:48;;;;;;;;;;;21.70;50.20;;;;;;1576317;74;705;-68
2022/11/28 08:45:49;;;;;;;;;;;21.60;50.20;;;;;;1571441;74;1475;-68
2022/11/28 08:47:51;;;;;;;;;;;21.50;50.40;;;;;;1578323;73;1179;-68
2022/11/28 08:49:53;;;;;;;;;;;21.50;50.40;;;;;;1581530;74;720;-69
2022/11/28 08:51:55;;;;;;;;;;;21.60;50.70;;;;;;1586416;74;701;-68
2022/11/28 08:53:57;;;;;;;;;;;21.50;50.50;;;;;;1582426;74;670;-68
2022/11/28 08:55:59;;;;;;;;;;;21.50;50.60;;;;;;1594901;74;1938;-68
2022/11/28 08:58:01;;;;;;;;;;;21.40;50.70;;;;;;1558766;74;1134;-68
2022/11/28 09:00:05;;;;;;;;;;;21.40;50.50;;;;;;1577830;74;1481;-69
2022/11/28 09:02:08;;;;;;;;;;;21.40;50.90;;;;;;1563449;74;631;-68
2022/11/28 09:04:10;;;;;;;;;;;21.40;50.60;;;;;;1564417;74;632;-68
2022/11/28 09:06:12;;;;;;;;;;;21.30;50.70;;;;;;1560368;74;675;-68
2022/11/28 09:08:14;;;;;;;;;;;21.30;50.70;;;;;;1574257;74;1096;-67
2022/11/28 09:10:16;;;;;;;;;;;21.30;50.60;;;;;;1561302;72;663;-68
2022/11/28 09:12:18;;;;;;;;;;;21.30;51.00;;;;;;1557910;74;656;-68
2022/11/28 09:14:20;;;;;;;;;;;21.30;50.30;;;;;;1578433;74;1479;-68
2022/11/28 09:16:22;;;;;;;;;;;21.30;50.70;;;;;;1585111;73;1936;-68
2022/11/28 09:18:25;;;;;;;;;;;21.30;50.50;;;;;;1563554;73;690;-68
2022/11/28 09:20:27;;;;;;;;;;;21.20;50.60;;;;;;1552562;74;658;-68
2022/11/28 09:22:29;;;;;;;;;;;21.20;50.70;;;;;;1552926;74;727;-68
2022/11/28 09:24:31;;;;;;;;;;;21.20;50.90;;;;;;1574503;74;716;-67
2022/11/28 09:26:33;;;;;;;;;;;21.20;49.40;;;;;;1571083;74;1104;-68
2022/11/28 09:28:35;;;;;;;;;;;21.20;49.70;;;;;;1556796;74;1262;-68
2022/11/28 09:30:37;;;;;;;;;;;21.20;50.20;;;;;;1568564;74;716;-70
2022/11/28 09:32:39;;;;;;;;;;;21.20;50.10;;;;;;1549340;74;702;-68
2022/11/28 09:34:40;;;;;;;;;;;21.20;50.40;;;;;;1560879;74;647;-68
2022/11/28 09:36:42;;;;;;;;;;;21.10;50.30;;;;;;1564828;74;1936;-68
2022/11/28 09:38:44;;;;;;;;;;;21.20;50.60;;;;;;1569689;74;686;-68
2022/11/28 09:40:46;;;;;;;;;;;21.10;51.00;;;;;;1575979;74;791;-68
2022/11/28 09:42:48;;;;;;;;;;;21.10;51.00;;;;;;1560594;74;1453;-68
2022/11/28 09:44:51;;;;;;;;;;;21.10;51.30;;;;;;1564883;74;723;-68
2022/11/28 09:46:54;;;;;;;;;;;21.10;51.00;;;;;;1560057;74;1130;-68
2022/11/28 09:48:57;;;;;;;;;;;21.10;51.20;;;;;;1555725;74;671;-68
2022/11/28 09:51:04;;;;;;;;;;;21.00;51.00;;;;;;1554205;74;706;-68
2022/11/28 09:53:13;;;;;;;;;;;21.10;51.10;;;;;;1550569;74;755;-69
2022/11/28 09:55:23;;;;;;;;;;;21.10;51.40;;;;;;1550498;74;1939;-69
2022/11/28 09:57:32;;;;;;;;;;;21.10;51.60;;;;;;1593579;73;1176;-69
2022/11/28 09:59:34;;;;;;;;;;;21.00;52.80;;;;;;1576493;74;694;-68
2022/11/28 10:01:37;;;;;;;;;;;21.00;52.70;;;;;;1573830;74;555;-68
2022/11/28 10:03:41;;;;;;;;;;;21.00;52.60;;;;;;1566540;74;669;-69
2022/11/28 10:06:01;;;;;;;;;;;21.00;52.30;;;;;;1561461;74;681;-69
2022/11/28 10:08:11;;;;;;;;;;;21.00;53.10;;;;;;1580949;74;1114;-70
2022/11/28 10:10:21;;;;;;;;;;;21.00;53.50;;;;;;1572945;74;1497;-68
2022/11/28 10:12:36;;;;;;;;;;;21.00;53.50;;;;;;1563990;74;691;-70
2022/11/28 10:14:40;;;;;;;;;;;21.00;53.50;;;;;;1574451;74;1023;-69
2022/11/28 10:16:55;;;;;;;;;;;20.90;53.50;;;;;;1579396;73;1928;-69
2022/11/28 10:18:59;;;;;;;;;;;21.00;52.10;;;;;;1573586;74;2078;-69
2022/11/28 10:21:02;;;;;;;;;;;20.90;52.80;;;;;;1573277;74;725;-69
2022/11/28 10:23:06;;;;;;;;;;;21.00;52.20;;;;;;1573152;74;685;-69
2022/11/28 10:25:15;;;;;;;;;;;20.90;52.00;;;;;;1561306;74;1658;-68
2022/11/28 10:27:17;;;;;;;;;;;21.00;52.70;;;;;;1556435;74;1578;-69
2022/11/28 10:29:38;;;;;;;;;;;20.90;52.70;;;;;;1572638;74;797;-69
2022/11/28 10:31:41;;;;;;;;;;;20.90;52.90;;;;;;1586641;74;513;-68
2022/11/28 10:33:46;;;;;;;;;;;20.90;52.60;;;;;;1582902;74;562;-69
2022/11/28 10:35:50;;;;;;;;;;;20.90;52.10;;;;;;1578617;74;1892;-68
2022/11/28 10:37:52;;;;;;;;;;;20.90;53.40;;;;;;1557595;74;1468;-68
2022/11/28 10:39:54;;;;;;;;;;;20.90;52.70;;;;;;1564678;74;702;-67
2022/11/28 10:42:13;;;;;;;;;;;20.90;52.80;;;;;;1572235;74;636;-68
2022/11/28 10:44:19;;;;;;;;;;;20.90;52.20;;;;;;1554538;74;681;-69
2022/11/28 10:46:26;;;;;;;;;;;20.90;52.40;;;;;;1568209;74;1208;-69
2022/11/28 10:48:33;;;;;;;;;;;20.80;52.90;;;;;;1563001;74;713;-70
2022/11/28 10:50:53;;;;;;;;;;;20.90;53.30;;;;;;1573166;74;679;-69
2022/11/28 10:52:56;;;;;;;;;;;20.90;53.40;;;;;;1576715;74;1611;-69
2022/11/28 10:55:06;;;;;;;;;;;20.80;50.80;;;;;;1564372;74;1667;-68
2022/11/28 10:57:19;;;;;;;;;;;20.80;51.90;;;;;;1576672;74;1910;-68
2022/11/28 10:59:22;;;;;;;;;;;20.80;53.00;;;;;;1579665;74;729;-69
2022/11/28 11:01:26;;;;;;;;;;;20.90;54.00;;;;;;1579557;74;1857;-69
2022/11/28 11:03:31;;;;;;;;;;;20.90;54.20;;;;;;1558254;74;552;-70
2022/11/28 11:05:34;;;;;;;;;;;21.00;54.20;;;;;;1565928;74;1442;-70
2022/11/28 11:07:35;;;;;;;;;;;21.00;53.90;;;;;;1584416;72;1359;-70
2022/11/28 11:09:37;;;;;;;;;;;21.10;53.80;;;;;;1561078;74;670;-70
2022/11/28 11:11:41;;;;;;;;;;;21.10;53.80;;;;;;1561944;74;670;-70
2022/11/28 11:13:56;;;;;;;;;;;21.10;54.20;;;;;;1561372;74;632;-70
2022/11/28 11:15:59;;;;;;;;;;;21.10;53.90;;;;;;1570950;74;1926;-70
2022/11/28 11:18:02;;;;;;;;;;;21.20;54.00;;;;;;1574125;73;1118;-70
2022/11/28 11:20:24;;;;;;;;;;;21.20;53.90;;;;;;1537637;76;1664;-70
2022/11/28 11:22:30;;;;;;;;;;;21.30;53.90;;;;;;1565818;74;683;-69
2022/11/28 11:24:31;;;;;;;;;;;21.30;54.10;;;;;;1576251;74;1047;-69
2022/11/28 11:26:34;;;;;;;;;;;21.30;54.20;;;;;;1575601;74;1181;-68
2022/11/28 11:28:45;;;;;;;;;;;21.30;54.30;;;;;;1580074;74;635;-69
2022/11/28 11:30:47;;;;;;;;;;;21.40;54.20;;;;;;1582995;74;716;-69
2022/11/28 11:32:49;;;;;;;;;;;21.30;54.30;;;;;;1576835;74;703;-68
2022/11/28 11:34:51;;;;;;;;;;;21.30;54.30;;;;;;1568117;74;1506;-68
2022/11/28 11:36:52;;;;;;;;;;;21.40;54.40;;;;;;1579979;74;1928;-69
2022/11/28 11:39:07;;;;;;;;;;;21.30;54.60;;;;;;1541234;75;687;-69
2022/11/28 11:41:28;;;;;;;;;;;21.30;54.80;;;;;;1584085;74;691;-69
2022/11/28 11:43:30;;;;;;;;;;;21.30;55.70;;;;;;1559330;74;718;-69
2022/11/28 11:45:33;;;;;;;;;;;21.30;55.80;;;;;;1580441;74;691;-69
2022/11/28 11:47:42;;;;;;;;;;;21.30;56.00;;;;;;1574321;74;1144;-69
2022/11/28 11:49:47;;;;;;;;;;;21.30;57.30;;;;;;1569960;74;727;-69
2022/11/28 11:51:51;;;;;;;;;;;21.40;57.40;;;;;;1567169;74;799;-69
2022/11/28 11:54:05;;;;;;;;;;;21.40;57.90;;;;;;1564121;74;1140;-70
2022/11/28 11:56:08;;;;;;;;;;;21.40;58.50;;;;;;1567267;74;1952;-70
2022/11/28 11:58:10;;;;;;;;;;;21.40;58.70;;;;;;1565625;74;1093;-66
2022/11/28 12:00:21;;;;;;;;;;;21.40;58.90;;;;;;1555218;74;707;-66
2022/11/28 12:02:41;;;;;;;;;;;21.50;59.10;;;;;;1560246;74;1496;-67
2022/11/28 12:04:44;;;;;;;;;;;21.40;59.20;;;;;;1563229;74;666;-66
2022/11/28 12:06:47;;;;;;;;;;;21.40;59.10;;;;;;1561441;74;1179;-67
2022/11/28 12:08:50;;;;;;;;;;;21.40;59.80;;;;;;1559035;74;608;-67
2022/11/28 12:10:53;;;;;;;;;;;21.40;59.70;;;;;;1587941;74;630;-66
2022/11/28 12:12:55;;;;;;;;;;;21.40;61.50;;;;;;1565382;74;695;-68
2022/11/28 12:14:57;;;;;;;;;;;21.40;61.70;;;;;;1564147;73;718;-66
2022/11/28 12:17:00;;;;;;;;;;;21.40;61.50;;;;;;1558466;74;1941;-65